Weather at Chipman Airport

Public forecast

Using degrees Celsius for public forecast. Weather courtesy of forecast.io.

Closest aviation weather report (METAR) to Chipman Airport

Closest report is Edmonton (CFB Namao) Heliport, 30.0 nm (55.5 km) W. Retrieved 2020/12/03 12:00 UTC (36 minutes ago):

CYED 031200Z AUTO 20008KT 9SM CLR M01/M06 A2997 RMK SLP179

Closest aviation forecast (TAF) to Chipman Airport

Closest forecast is Edmonton (CFB Namao) Heliport, 30.0 nm (55.5 km) W. Retrieved 2020/12/03 12:33 UTC (3 minutes ago):

TAF CYED 031130Z 0312/0324 23005KT P6SM SKC RMK FCST BASED ON AUTO OBS NXT FCST BY 031800Z